sensor_id;sensor_type;location;lat;lon;timestamp;P1;durP1;ratioP1;P2;durP2;ratioP2
18206;SDS011;9229;52.354;20.886;2023-04-23T00:01:30;66.15;;;33.53;;
18206;SDS011;9229;52.354;20.886;2023-04-23T00:06:34;65.75;;;33.70;;
18206;SDS011;9229;52.354;20.886;2023-04-23T00:11:37;64.22;;;32.03;;
18206;SDS011;9229;52.354;20.886;2023-04-23T00:16:41;67.13;;;33.28;;
18206;SDS011;9229;52.354;20.886;2023-04-23T00:21:44;68.20;;;32.03;;
18206;SDS011;9229;52.354;20.886;2023-04-23T00:26:46;61.63;;;34.80;;
18206;SDS011;9229;52.354;20.886;2023-04-23T00:31:50;67.90;;;35.58;;
18206;SDS011;9229;52.354;20.886;2023-04-23T00:36:52;64.57;;;35.30;;
18206;SDS011;9229;52.354;20.886;2023-04-23T00:41:56;62.92;;;32.83;;
18206;SDS011;9229;52.354;20.886;2023-04-23T00:47:01;60.50;;;31.13;;
18206;SDS011;9229;52.354;20.886;2023-04-23T00:52:03;56.03;;;31.17;;
18206;SDS011;9229;52.354;20.886;2023-04-23T00:57:05;74.43;;;33.08;;
18206;SDS011;9229;52.354;20.886;2023-04-23T01:02:09;57.88;;;32.05;;
18206;SDS011;9229;52.354;20.886;2023-04-23T01:07:12;56.53;;;30.60;;
18206;SDS011;9229;52.354;20.886;2023-04-23T01:12:16;64.07;;;30.48;;
18206;SDS011;9229;52.354;20.886;2023-04-23T01:17:20;63.35;;;30.48;;
18206;SDS011;9229;52.354;20.886;2023-04-23T01:22:24;55.08;;;29.60;;
18206;SDS011;9229;52.354;20.886;2023-04-23T01:27:26;57.10;;;29.95;;
18206;SDS011;9229;52.354;20.886;2023-04-23T01:32:28;53.67;;;27.98;;
18206;SDS011;9229;52.354;20.886;2023-04-23T01:37:33;55.65;;;27.98;;
18206;SDS011;9229;52.354;20.886;2023-04-23T01:42:37;50.88;;;27.85;;
18206;SDS011;9229;52.354;20.886;2023-04-23T01:47:40;51.58;;;28.00;;
18206;SDS011;9229;52.354;20.886;2023-04-23T01:52:44;50.05;;;27.85;;
18206;SDS011;9229;52.354;20.886;2023-04-23T01:57:46;46.70;;;27.02;;
18206;SDS011;9229;52.354;20.886;2023-04-23T02:02:49;51.72;;;26.52;;
18206;SDS011;9229;52.354;20.886;2023-04-23T02:07:55;52.13;;;24.65;;
18206;SDS011;9229;52.354;20.886;2023-04-23T02:12:57;47.45;;;25.85;;
18206;SDS011;9229;52.354;20.886;2023-04-23T02:18:00;47.33;;;27.02;;
18206;SDS011;9229;52.354;20.886;2023-04-23T02:23:03;56.40;;;26.23;;
18206;SDS011;9229;52.354;20.886;2023-04-23T02:28:06;46.22;;;24.63;;
18206;SDS011;9229;52.354;20.886;2023-04-23T02:33:10;45.05;;;23.45;;
18206;SDS011;9229;52.354;20.886;2023-04-23T02:38:15;43.50;;;24.85;;
18206;SDS011;9229;52.354;20.886;2023-04-23T02:43:18;45.97;;;24.00;;
18206;SDS011;9229;52.354;20.886;2023-04-23T02:48:20;47.33;;;25.65;;
18206;SDS011;9229;52.354;20.886;2023-04-23T02:53:24;47.35;;;25.15;;
18206;SDS011;9229;52.354;20.886;2023-04-23T02:58:27;39.80;;;22.27;;
18206;SDS011;9229;52.354;20.886;2023-04-23T03:03:31;42.80;;;23.08;;
18206;SDS011;9229;52.354;20.886;2023-04-23T03:08:38;50.83;;;22.52;;
18206;SDS011;9229;52.354;20.886;2023-04-23T03:13:40;40.97;;;22.08;;
18206;SDS011;9229;52.354;20.886;2023-04-23T03:18:42;43.95;;;21.50;;
18206;SDS011;9229;52.354;20.886;2023-04-23T03:23:46;41.15;;;21.38;;
18206;SDS011;9229;52.354;20.886;2023-04-23T03:28:48;39.33;;;21.85;;
18206;SDS011;9229;52.354;20.886;2023-04-23T03:33:50;34.20;;;19.70;;
18206;SDS011;9229;52.354;20.886;2023-04-23T03:39:01;33.03;;;20.23;;
18206;SDS011;9229;52.354;20.886;2023-04-23T03:44:16;34.30;;;20.08;;
18206;SDS011;9229;52.354;20.886;2023-04-23T03:49:20;40.33;;;21.35;;
18206;SDS011;9229;52.354;20.886;2023-04-23T03:54:24;33.38;;;19.73;;
18206;SDS011;9229;52.354;20.886;2023-04-23T03:59:53;39.65;;;19.55;;
18206;SDS011;9229;52.354;20.886;2023-04-23T04:04:55;42.38;;;20.33;;
18206;SDS011;9229;52.354;20.886;2023-04-23T04:09:59;39.15;;;20.20;;
18206;SDS011;9229;52.354;20.886;2023-04-23T04:15:03;37.28;;;20.15;;
18206;SDS011;9229;52.354;20.886;2023-04-23T04:20:06;36.03;;;19.30;;
18206;SDS011;9229;52.354;20.886;2023-04-23T04:25:11;39.65;;;18.73;;
18206;SDS011;9229;52.354;20.886;2023-04-23T04:30:14;33.25;;;19.02;;
18206;SDS011;9229;52.354;20.886;2023-04-23T04:35:16;37.72;;;19.80;;
18206;SDS011;9229;52.354;20.886;2023-04-23T04:40:20;31.50;;;17.88;;
18206;SDS011;9229;52.354;20.886;2023-04-23T04:45:22;34.78;;;18.20;;
18206;SDS011;9229;52.354;20.886;2023-04-23T04:50:24;34.78;;;18.20;;
18206;SDS011;9229;52.354;20.886;2023-04-23T04:55:28;28.52;;;17.30;;
18206;SDS011;9229;52.354;20.886;2023-04-23T05:00:33;33.28;;;17.50;;
18206;SDS011;9229;52.354;20.886;2023-04-23T05:05:35;25.33;;;16.25;;
18206;SDS011;9229;52.354;20.886;2023-04-23T05:10:39;29.45;;;16.38;;
18206;SDS011;9229;52.354;20.886;2023-04-23T05:15:41;26.80;;;15.98;;
18206;SDS011;9229;52.354;20.886;2023-04-23T05:20:43;29.98;;;16.33;;
18206;SDS011;9229;52.354;20.886;2023-04-23T05:25:48;26.98;;;15.48;;
18206;SDS011;9229;52.354;20.886;2023-04-23T05:30:52;25.52;;;14.55;;
18206;SDS011;9229;52.354;20.886;2023-04-23T05:35:54;23.98;;;14.73;;
18206;SDS011;9229;52.354;20.886;2023-04-23T05:40:58;25.65;;;14.65;;
18206;SDS011;9229;52.354;20.886;2023-04-23T05:46:00;24.10;;;12.90;;
18206;SDS011;9229;52.354;20.886;2023-04-23T05:51:05;27.15;;;13.23;;
18206;SDS011;9229;52.354;20.886;2023-04-23T05:56:09;23.38;;;13.75;;
18206;SDS011;9229;52.354;20.886;2023-04-23T06:01:11;23.48;;;13.52;;
18206;SDS011;9229;52.354;20.886;2023-04-23T06:06:19;20.73;;;11.95;;
18206;SDS011;9229;52.354;20.886;2023-04-23T06:11:24;24.70;;;13.35;;
18206;SDS011;9229;52.354;20.886;2023-04-23T06:16:26;21.77;;;11.95;;
18206;SDS011;9229;52.354;20.886;2023-04-23T06:21:28;17.80;;;11.77;;
18206;SDS011;9229;52.354;20.886;2023-04-23T06:26:33;20.48;;;10.68;;
18206;SDS011;9229;52.354;20.886;2023-04-23T06:31:44;19.98;;;12.02;;
18206;SDS011;9229;52.354;20.886;2023-04-23T06:36:46;22.63;;;11.98;;
18206;SDS011;9229;52.354;20.886;2023-04-23T06:41:50;16.55;;;10.75;;
18206;SDS011;9229;52.354;20.886;2023-04-23T06:46:59;17.67;;;10.63;;
18206;SDS011;9229;52.354;20.886;2023-04-23T06:52:01;17.35;;;10.82;;
18206;SDS011;9229;52.354;20.886;2023-04-23T06:57:05;19.02;;;9.82;;
18206;SDS011;9229;52.354;20.886;2023-04-23T07:02:07;14.20;;;9.38;;
18206;SDS011;9229;52.354;20.886;2023-04-23T07:07:09;10.43;;;8.25;;
18206;SDS011;9229;52.354;20.886;2023-04-23T07:12:12;14.35;;;8.05;;
18206;SDS011;9229;52.354;20.886;2023-04-23T07:17:16;11.73;;;7.90;;
18206;SDS011;9229;52.354;20.886;2023-04-23T07:22:18;13.27;;;7.45;;
18206;SDS011;9229;52.354;20.886;2023-04-23T07:27:22;17.15;;;8.57;;
18206;SDS011;9229;52.354;20.886;2023-04-23T07:32:24;13.82;;;7.63;;
18206;SDS011;9229;52.354;20.886;2023-04-23T07:37:28;16.75;;;7.15;;
18206;SDS011;9229;52.354;20.886;2023-04-23T07:42:37;9.93;;;6.47;;
18206;SDS011;9229;52.354;20.886;2023-04-23T07:47:42;8.93;;;6.15;;
18206;SDS011;9229;52.354;20.886;2023-04-23T07:52:46;7.30;;;5.75;;
18206;SDS011;9229;52.354;20.886;2023-04-23T07:57:50;9.65;;;5.57;;
18206;SDS011;9229;52.354;20.886;2023-04-23T08:02:53;6.80;;;4.88;;
18206;SDS011;9229;52.354;20.886;2023-04-23T08:07:55;5.82;;;4.68;;
18206;SDS011;9229;52.354;20.886;2023-04-23T08:12:59;22.33;;;6.38;;
18206;SDS011;9229;52.354;20.886;2023-04-23T08:18:01;9.45;;;5.10;;
18206;SDS011;9229;52.354;20.886;2023-04-23T08:23:04;7.05;;;4.47;;
18206;SDS011;9229;52.354;20.886;2023-04-23T08:28:07;7.82;;;4.35;;
18206;SDS011;9229;52.354;20.886;2023-04-23T08:33:10;8.20;;;4.78;;
18206;SDS011;9229;52.354;20.886;2023-04-23T08:38:15;8.13;;;5.38;;
18206;SDS011;9229;52.354;20.886;2023-04-23T08:43:19;7.25;;;4.07;;
18206;SDS011;9229;52.354;20.886;2023-04-23T08:48:28;4.38;;;4.13;;
18206;SDS011;9229;52.354;20.886;2023-04-23T08:53:31;7.20;;;4.47;;
18206;SDS011;9229;52.354;20.886;2023-04-23T08:58:35;4.35;;;3.60;;
18206;SDS011;9229;52.354;20.886;2023-04-23T09:03:40;6.38;;;4.40;;
18206;SDS011;9229;52.354;20.886;2023-04-23T09:08:43;4.50;;;3.85;;
18206;SDS011;9229;52.354;20.886;2023-04-23T09:13:48;5.25;;;4.50;;
18206;SDS011;9229;52.354;20.886;2023-04-23T09:18:50;7.50;;;4.10;;
18206;SDS011;9229;52.354;20.886;2023-04-23T09:23:53;5.13;;;4.20;;
18206;SDS011;9229;52.354;20.886;2023-04-23T09:28:57;3.90;;;3.70;;
18206;SDS011;9229;52.354;20.886;2023-04-23T09:34:00;6.97;;;4.00;;
18206;SDS011;9229;52.354;20.886;2023-04-23T09:39:08;11.30;;;4.45;;
18206;SDS011;9229;52.354;20.886;2023-04-23T09:44:17;6.03;;;4.03;;
18206;SDS011;9229;52.354;20.886;2023-04-23T09:49:21;3.90;;;3.58;;
18206;SDS011;9229;52.354;20.886;2023-04-23T09:54:23;31.10;;;4.22;;
18206;SDS011;9229;52.354;20.886;2023-04-23T09:59:28;4.13;;;3.60;;
18206;SDS011;9229;52.354;20.886;2023-04-23T10:04:31;3.80;;;3.45;;
18206;SDS011;9229;52.354;20.886;2023-04-23T10:09:34;8.63;;;3.60;;
18206;SDS011;9229;52.354;20.886;2023-04-23T10:14:37;4.40;;;3.88;;
18206;SDS011;9229;52.354;20.886;2023-04-23T10:19:41;14.35;;;4.50;;
18206;SDS011;9229;52.354;20.886;2023-04-23T10:24:44;8.35;;;3.60;;
18206;SDS011;9229;52.354;20.886;2023-04-23T10:29:53;4.13;;;3.67;;
18206;SDS011;9229;52.354;20.886;2023-04-23T10:34:56;4.75;;;3.83;;
18206;SDS011;9229;52.354;20.886;2023-04-23T10:40:00;9.07;;;3.97;;
18206;SDS011;9229;52.354;20.886;2023-04-23T10:45:13;7.53;;;3.65;;
18206;SDS011;9229;52.354;20.886;2023-04-23T10:50:20;5.45;;;3.28;;
18206;SDS011;9229;52.354;20.886;2023-04-23T10:55:24;9.18;;;3.90;;
18206;SDS011;9229;52.354;20.886;2023-04-23T11:00:29;7.77;;;4.23;;
18206;SDS011;9229;52.354;20.886;2023-04-23T11:05:43;8.13;;;3.58;;
18206;SDS011;9229;52.354;20.886;2023-04-23T11:10:53;5.32;;;3.80;;
18206;SDS011;9229;52.354;20.886;2023-04-23T11:16:17;6.20;;;3.67;;
18206;SDS011;9229;52.354;20.886;2023-04-23T11:21:21;13.93;;;3.88;;
18206;SDS011;9229;52.354;20.886;2023-04-23T11:26:43;4.18;;;3.88;;
18206;SDS011;9229;52.354;20.886;2023-04-23T11:31:52;3.75;;;3.45;;
18206;SDS011;9229;52.354;20.886;2023-04-23T11:36:56;10.27;;;3.63;;
18206;SDS011;9229;52.354;20.886;2023-04-23T11:41:59;4.82;;;3.40;;
18206;SDS011;9229;52.354;20.886;2023-04-23T11:47:03;3.90;;;3.60;;
18206;SDS011;9229;52.354;20.886;2023-04-23T11:52:08;5.88;;;3.58;;
18206;SDS011;9229;52.354;20.886;2023-04-23T11:57:10;8.50;;;4.10;;
18206;SDS011;9229;52.354;20.886;2023-04-23T12:02:15;5.18;;;3.65;;
18206;SDS011;9229;52.354;20.886;2023-04-23T12:07:17;4.15;;;3.50;;
18206;SDS011;9229;52.354;20.886;2023-04-23T12:12:19;4.38;;;3.78;;
18206;SDS011;9229;52.354;20.886;2023-04-23T12:17:23;6.50;;;3.55;;
18206;SDS011;9229;52.354;20.886;2023-04-23T12:22:25;4.25;;;3.65;;
18206;SDS011;9229;52.354;20.886;2023-04-23T12:27:29;44.20;;;5.25;;
18206;SDS011;9229;52.354;20.886;2023-04-23T12:32:34;9.05;;;3.45;;
18206;SDS011;9229;52.354;20.886;2023-04-23T12:37:37;4.05;;;3.65;;
18206;SDS011;9229;52.354;20.886;2023-04-23T12:42:39;11.80;;;3.90;;
18206;SDS011;9229;52.354;20.886;2023-04-23T12:47:42;4.47;;;3.85;;
18206;SDS011;9229;52.354;20.886;2023-04-23T12:52:45;4.50;;;3.47;;
18206;SDS011;9229;52.354;20.886;2023-04-23T12:57:46;3.65;;;3.45;;
18206;SDS011;9229;52.354;20.886;2023-04-23T13:02:51;6.70;;;3.67;;
18206;SDS011;9229;52.354;20.886;2023-04-23T13:07:53;4.10;;;3.70;;
18206;SDS011;9229;52.354;20.886;2023-04-23T13:12:55;8.65;;;4.30;;
18206;SDS011;9229;52.354;20.886;2023-04-23T13:17:58;4.57;;;3.47;;
18206;SDS011;9229;52.354;20.886;2023-04-23T13:23:00;4.93;;;4.25;;
18206;SDS011;9229;52.354;20.886;2023-04-23T13:28:03;4.15;;;3.63;;
18206;SDS011;9229;52.354;20.886;2023-04-23T13:33:06;4.80;;;3.58;;
18206;SDS011;9229;52.354;20.886;2023-04-23T13:38:08;5.07;;;3.22;;
18206;SDS011;9229;52.354;20.886;2023-04-23T13:43:10;4.80;;;3.58;;
18206;SDS011;9229;52.354;20.886;2023-04-23T13:48:14;6.05;;;3.58;;
18206;SDS011;9229;52.354;20.886;2023-04-23T13:53:16;4.53;;;3.47;;
18206;SDS011;9229;52.354;20.886;2023-04-23T13:58:18;5.00;;;3.45;;
18206;SDS011;9229;52.354;20.886;2023-04-23T14:03:23;5.60;;;3.88;;
18206;SDS011;9229;52.354;20.886;2023-04-23T14:08:25;8.75;;;3.58;;
18206;SDS011;9229;52.354;20.886;2023-04-23T14:13:27;4.10;;;3.80;;
18206;SDS011;9229;52.354;20.886;2023-04-23T14:18:32;3.72;;;3.53;;
18206;SDS011;9229;52.354;20.886;2023-04-23T14:23:50;7.60;;;4.28;;
18206;SDS011;9229;52.354;20.886;2023-04-23T14:28:56;4.03;;;3.60;;
18206;SDS011;9229;52.354;20.886;2023-04-23T14:34:05;6.20;;;3.55;;
18206;SDS011;9229;52.354;20.886;2023-04-23T14:39:07;4.03;;;3.72;;
18206;SDS011;9229;52.354;20.886;2023-04-23T14:44:09;24.05;;;4.90;;
18206;SDS011;9229;52.354;20.886;2023-04-23T14:49:13;8.00;;;4.63;;
18206;SDS011;9229;52.354;20.886;2023-04-23T14:54:15;4.53;;;3.97;;
18206;SDS011;9229;52.354;20.886;2023-04-23T14:59:17;3.90;;;3.60;;
18206;SDS011;9229;52.354;20.886;2023-04-23T15:04:21;4.30;;;4.00;;
18206;SDS011;9229;52.354;20.886;2023-04-23T15:09:23;4.85;;;3.90;;
18206;SDS011;9229;52.354;20.886;2023-04-23T15:14:29;5.82;;;4.13;;
18206;SDS011;9229;52.354;20.886;2023-04-23T15:19:33;4.18;;;3.88;;
18206;SDS011;9229;52.354;20.886;2023-04-23T15:24:35;4.35;;;4.05;;
18206;SDS011;9229;52.354;20.886;2023-04-23T15:29:37;4.25;;;3.95;;
18206;SDS011;9229;52.354;20.886;2023-04-23T15:34:41;4.85;;;4.18;;
18206;SDS011;9229;52.354;20.886;2023-04-23T15:39:43;4.45;;;4.10;;
18206;SDS011;9229;52.354;20.886;2023-04-23T15:44:46;4.90;;;3.88;;
18206;SDS011;9229;52.354;20.886;2023-04-23T15:49:51;5.35;;;4.18;;
18206;SDS011;9229;52.354;20.886;2023-04-23T15:54:53;3.70;;;3.40;;
18206;SDS011;9229;52.354;20.886;2023-04-23T15:59:55;8.02;;;4.03;;
18206;SDS011;9229;52.354;20.886;2023-04-23T16:04:59;4.95;;;4.43;;
18206;SDS011;9229;52.354;20.886;2023-04-23T16:10:01;7.05;;;4.47;;
18206;SDS011;9229;52.354;20.886;2023-04-23T16:15:04;6.15;;;4.25;;
18206;SDS011;9229;52.354;20.886;2023-04-23T16:20:09;5.85;;;4.32;;
18206;SDS011;9229;52.354;20.886;2023-04-23T16:25:11;8.50;;;3.80;;
18206;SDS011;9229;52.354;20.886;2023-04-23T16:30:13;9.40;;;4.72;;
18206;SDS011;9229;52.354;20.886;2023-04-23T16:35:17;4.15;;;3.85;;
18206;SDS011;9229;52.354;20.886;2023-04-23T16:40:22;9.07;;;4.68;;
18206;SDS011;9229;52.354;20.886;2023-04-23T16:45:25;7.85;;;4.40;;
18206;SDS011;9229;52.354;20.886;2023-04-23T16:50:29;4.93;;;4.22;;
18206;SDS011;9229;52.354;20.886;2023-04-23T16:55:31;4.50;;;4.05;;
18206;SDS011;9229;52.354;20.886;2023-04-23T17:00:33;18.27;;;5.20;;
18206;SDS011;9229;52.354;20.886;2023-04-23T17:05:37;7.97;;;4.78;;
18206;SDS011;9229;52.354;20.886;2023-04-23T17:10:40;6.18;;;4.53;;
18206;SDS011;9229;52.354;20.886;2023-04-23T17:15:43;7.68;;;5.10;;
18206;SDS011;9229;52.354;20.886;2023-04-23T17:20:47;11.57;;;5.30;;
18206;SDS011;9229;52.354;20.886;2023-04-23T17:25:50;6.55;;;4.95;;
18206;SDS011;9229;52.354;20.886;2023-04-23T17:30:52;11.20;;;5.00;;
18206;SDS011;9229;52.354;20.886;2023-04-23T17:35:56;5.50;;;4.40;;
18206;SDS011;9229;52.354;20.886;2023-04-23T17:40:58;10.88;;;5.38;;
18206;SDS011;9229;52.354;20.886;2023-04-23T17:46:00;7.18;;;4.97;;
18206;SDS011;9229;52.354;20.886;2023-04-23T17:51:04;7.20;;;4.88;;
18206;SDS011;9229;52.354;20.886;2023-04-23T17:56:06;7.80;;;5.50;;
18206;SDS011;9229;52.354;20.886;2023-04-23T18:01:09;5.20;;;4.80;;
18206;SDS011;9229;52.354;20.886;2023-04-23T18:06:12;6.57;;;5.43;;
18206;SDS011;9229;52.354;20.886;2023-04-23T18:11:14;10.05;;;5.07;;
18206;SDS011;9229;52.354;20.886;2023-04-23T18:16:16;5.47;;;4.93;;
18206;SDS011;9229;52.354;20.886;2023-04-23T18:21:20;10.88;;;5.22;;
18206;SDS011;9229;52.354;20.886;2023-04-23T18:26:23;8.35;;;5.80;;
18206;SDS011;9229;52.354;20.886;2023-04-23T18:31:25;7.30;;;5.25;;
18206;SDS011;9229;52.354;20.886;2023-04-23T18:36:30;8.60;;;5.25;;
18206;SDS011;9229;52.354;20.886;2023-04-23T18:41:32;7.25;;;5.40;;
18206;SDS011;9229;52.354;20.886;2023-04-23T18:46:35;7.35;;;5.57;;
18206;SDS011;9229;52.354;20.886;2023-04-23T18:51:42;9.05;;;5.60;;
18206;SDS011;9229;52.354;20.886;2023-04-23T18:56:45;5.65;;;5.15;;
18206;SDS011;9229;52.354;20.886;2023-04-23T19:01:50;8.00;;;5.38;;
18206;SDS011;9229;52.354;20.886;2023-04-23T19:06:53;9.25;;;5.60;;
18206;SDS011;9229;52.354;20.886;2023-04-23T19:11:55;8.25;;;5.72;;
18206;SDS011;9229;52.354;20.886;2023-04-23T19:16:57;10.00;;;5.50;;
18206;SDS011;9229;52.354;20.886;2023-04-23T19:22:01;9.25;;;5.97;;
18206;SDS011;9229;52.354;20.886;2023-04-23T19:27:03;11.55;;;5.70;;
18206;SDS011;9229;52.354;20.886;2023-04-23T19:32:06;7.90;;;4.97;;
18206;SDS011;9229;52.354;20.886;2023-04-23T19:37:12;9.38;;;5.63;;
18206;SDS011;9229;52.354;20.886;2023-04-23T19:42:14;10.30;;;6.75;;
18206;SDS011;9229;52.354;20.886;2023-04-23T19:47:16;8.15;;;5.78;;
18206;SDS011;9229;52.354;20.886;2023-04-23T19:52:20;7.45;;;6.45;;
18206;SDS011;9229;52.354;20.886;2023-04-23T19:57:25;8.20;;;5.55;;
18206;SDS011;9229;52.354;20.886;2023-04-23T20:02:27;9.70;;;5.60;;
18206;SDS011;9229;52.354;20.886;2023-04-23T20:07:30;11.65;;;5.63;;
18206;SDS011;9229;52.354;20.886;2023-04-23T20:12:33;7.05;;;5.57;;
18206;SDS011;9229;52.354;20.886;2023-04-23T20:17:35;11.20;;;6.25;;
18206;SDS011;9229;52.354;20.886;2023-04-23T20:22:42;6.70;;;5.85;;
18206;SDS011;9229;52.354;20.886;2023-04-23T20:27:44;8.38;;;6.93;;
18206;SDS011;9229;52.354;20.886;2023-04-23T20:32:47;12.10;;;6.63;;
18206;SDS011;9229;52.354;20.886;2023-04-23T20:37:52;9.63;;;6.60;;
18206;SDS011;9229;52.354;20.886;2023-04-23T20:42:54;6.93;;;6.13;;
18206;SDS011;9229;52.354;20.886;2023-04-23T20:47:57;9.10;;;6.85;;
18206;SDS011;9229;52.354;20.886;2023-04-23T20:53:03;8.35;;;5.93;;
18206;SDS011;9229;52.354;20.886;2023-04-23T20:58:05;12.00;;;6.22;;
18206;SDS011;9229;52.354;20.886;2023-04-23T21:03:07;7.57;;;6.30;;
18206;SDS011;9229;52.354;20.886;2023-04-23T21:08:12;7.93;;;5.97;;
18206;SDS011;9229;52.354;20.886;2023-04-23T21:13:14;13.88;;;6.05;;
18206;SDS011;9229;52.354;20.886;2023-04-23T21:18:16;7.05;;;5.93;;
18206;SDS011;9229;52.354;20.886;2023-04-23T21:23:22;10.10;;;6.82;;
18206;SDS011;9229;52.354;20.886;2023-04-23T21:28:24;10.48;;;6.72;;
18206;SDS011;9229;52.354;20.886;2023-04-23T21:33:26;11.15;;;7.10;;
18206;SDS011;9229;52.354;20.886;2023-04-23T21:38:30;10.73;;;7.22;;
18206;SDS011;9229;52.354;20.886;2023-04-23T21:43:33;15.07;;;7.18;;
18206;SDS011;9229;52.354;20.886;2023-04-23T21:48:37;9.10;;;6.32;;
18206;SDS011;9229;52.354;20.886;2023-04-23T21:53:40;13.23;;;7.32;;
18206;SDS011;9229;52.354;20.886;2023-04-23T21:58:42;10.23;;;7.22;;
18206;SDS011;9229;52.354;20.886;2023-04-23T22:03:45;7.75;;;6.78;;
18206;SDS011;9229;52.354;20.886;2023-04-23T22:08:51;11.73;;;7.32;;
18206;SDS011;9229;52.354;20.886;2023-04-23T22:13:55;8.95;;;7.28;;
18206;SDS011;9229;52.354;20.886;2023-04-23T22:18:57;10.32;;;7.30;;
18206;SDS011;9229;52.354;20.886;2023-04-23T22:24:01;11.45;;;7.78;;
18206;SDS011;9229;52.354;20.886;2023-04-23T22:29:03;10.15;;;7.47;;
18206;SDS011;9229;52.354;20.886;2023-04-23T22:34:05;9.85;;;7.75;;
18206;SDS011;9229;52.354;20.886;2023-04-23T22:39:09;13.82;;;7.95;;
18206;SDS011;9229;52.354;20.886;2023-04-23T22:44:12;20.00;;;8.60;;
18206;SDS011;9229;52.354;20.886;2023-04-23T22:49:14;14.95;;;8.30;;
18206;SDS011;9229;52.354;20.886;2023-04-23T22:54:18;19.23;;;8.57;;
18206;SDS011;9229;52.354;20.886;2023-04-23T22:59:21;15.93;;;8.95;;
18206;SDS011;9229;52.354;20.886;2023-04-23T23:04:24;12.02;;;8.95;;
18206;SDS011;9229;52.354;20.886;2023-04-23T23:09:27;19.73;;;8.55;;
18206;SDS011;9229;52.354;20.886;2023-04-23T23:14:29;11.57;;;8.60;;
18206;SDS011;9229;52.354;20.886;2023-04-23T23:19:32;15.40;;;8.05;;
18206;SDS011;9229;52.354;20.886;2023-04-23T23:24:35;27.98;;;9.45;;
18206;SDS011;9229;52.354;20.886;2023-04-23T23:29:38;15.77;;;8.93;;
18206;SDS011;9229;52.354;20.886;2023-04-23T23:34:40;10.15;;;8.23;;
18206;SDS011;9229;52.354;20.886;2023-04-23T23:39:44;20.95;;;8.35;;
18206;SDS011;9229;52.354;20.886;2023-04-23T23:44:48;14.70;;;8.63;;
18206;SDS011;9229;52.354;20.886;2023-04-23T23:49:51;11.57;;;8.00;;
18206;SDS011;9229;52.354;20.886;2023-04-23T23:54:54;19.08;;;8.75;;
18206;SDS011;9229;52.354;20.886;2023-04-23T23:59:56;15.82;;;9.18;;
